Time;durP1;ratioP1;P1;durP2;ratioP2;P2;SDS_P1;SDS_P2;PMS_P1;PMS_P2;Temp;Humidity;BMP_temperature;BMP_pressure;BME280_temperature;BME280_humidity;BME280_pressure;Samples;Min_cycle;Max_cycle;Signal;HPM_P1;HPM_P2
2022/12/21 00:01:16;;;;;;;36.60;14.82;;;9.30;99.90;;;;;;5071148;28;20044;-68
2022/12/21 00:03:43;;;;;;;32.33;13.77;;;9.30;99.90;;;;;;5054120;28;20037;-68
2022/12/21 00:06:10;;;;;;;33.28;14.10;;;9.30;99.90;;;;;;5040520;28;20041;-68
2022/12/21 00:08:38;;;;;;;41.78;16.10;;;9.30;99.90;;;;;;5050740;28;20038;-68
2022/12/21 00:11:04;;;;;;;37.17;15.48;;;9.30;99.90;;;;;;5051361;28;20170;-68
2022/12/21 00:13:31;;;;;;;35.58;16.50;;;9.30;99.90;;;;;;5050664;28;20052;-68
2022/12/21 00:16:02;;;;;;;33.80;14.63;;;9.30;99.90;;;;;;5050581;28;20448;-68
2022/12/21 00:18:27;;;;;;;37.25;15.30;;;9.30;99.90;;;;;;5050834;28;20098;-68
2022/12/21 00:21:07;;;;;;;36.30;14.98;;;9.20;99.90;;;;;;5049484;28;20053;-68
2022/12/21 00:23:34;;;;;;;33.67;16.27;;;9.20;99.90;;;;;;5048541;28;20049;-68
2022/12/21 00:26:01;;;;;;;33.97;14.73;;;9.20;99.90;;;;;;5050630;28;20401;-68
2022/12/21 00:28:28;;;;;;;31.80;14.25;;;9.20;99.90;;;;;;5049819;28;20482;-68
2022/12/21 00:30:54;;;;;;;38.58;14.93;;;9.20;99.90;;;;;;5049108;28;20032;-68
2022/12/21 00:33:20;;;;;;;34.83;14.40;;;9.20;99.90;;;;;;5055098;28;20087;-68
2022/12/21 00:35:50;;;;;;;36.63;16.00;;;9.20;99.90;;;;;;5060096;28;20060;-68
2022/12/21 00:38:17;;;;;;;35.95;15.15;;;9.10;99.90;;;;;;5071241;28;20037;-68
2022/12/21 00:40:43;;;;;;;42.88;16.45;;;9.20;99.90;;;;;;5070586;28;20040;-68
2022/12/21 00:43:09;;;;;;;40.00;16.80;;;9.10;99.90;;;;;;5070432;28;20070;-68
2022/12/21 00:45:34;;;;;;;33.67;13.85;;;9.10;99.90;;;;;;5069785;28;20468;-68
2022/12/21 00:48:00;;;;;;;36.72;15.55;;;9.10;99.90;;;;;;5070778;28;20033;-68
2022/12/21 00:50:26;;;;;;;33.35;14.93;;;9.10;99.90;;;;;;5070620;28;20044;-68
2022/12/21 00:52:52;;;;;;;37.10;14.73;;;9.10;99.90;;;;;;5070341;28;20451;-68
2022/12/21 00:55:17;;;;;;;35.88;14.25;;;9.10;99.90;;;;;;5070008;28;20032;-68
2022/12/21 00:57:43;;;;;;;37.30;15.32;;;9.10;99.90;;;;;;5070826;28;20078;-68
2022/12/21 01:00:09;;;;;;;37.65;15.63;;;9.10;99.90;;;;;;5070700;28;20052;-68
2022/12/21 01:02:35;;;;;;;35.33;15.93;;;9.10;99.90;;;;;;5070545;28;20504;-68
2022/12/21 01:05:01;;;;;;;37.10;14.95;;;9.10;99.90;;;;;;5070217;28;20049;-68
2022/12/21 01:07:27;;;;;;;41.95;16.33;;;9.10;99.90;;;;;;5063746;28;20048;-68
2022/12/21 01:09:53;;;;;;;42.13;15.07;;;9.10;99.90;;;;;;5050006;28;20036;-68
2022/12/21 01:12:19;;;;;;;39.38;15.85;;;9.10;99.90;;;;;;5032895;28;20056;-68
2022/12/21 01:14:44;;;;;;;39.80;16.17;;;9.10;99.90;;;;;;5048306;28;20049;-68
2022/12/21 01:17:10;;;;;;;37.17;15.10;;;9.00;99.90;;;;;;5048875;28;20389;-68
2022/12/21 01:19:35;;;;;;;48.53;16.67;;;9.00;99.90;;;;;;5047791;28;20052;-68
2022/12/21 01:22:01;;;;;;;42.45;17.40;;;9.00;99.90;;;;;;5053529;28;20041;-68
2022/12/21 01:24:26;;;;;;;42.28;15.60;;;9.10;99.90;;;;;;5052167;28;20037;-68
2022/12/21 01:26:52;;;;;;;38.38;15.40;;;9.00;99.90;;;;;;5053348;28;20121;-68
2022/12/21 01:29:17;;;;;;;40.83;16.10;;;9.00;99.90;;;;;;5054243;28;20041;-68
2022/12/21 01:31:43;;;;;;;43.10;17.08;;;9.00;99.90;;;;;;5052880;28;20045;-68
2022/12/21 01:34:09;;;;;;;41.95;14.77;;;9.00;99.90;;;;;;5052135;28;20492;-68
2022/12/21 01:36:34;;;;;;;38.40;15.63;;;9.00;99.90;;;;;;5054042;28;20118;-68
2022/12/21 01:39:00;;;;;;;35.42;14.68;;;9.00;99.90;;;;;;5054091;28;20044;-68
2022/12/21 01:41:27;;;;;;;39.60;14.57;;;9.00;99.90;;;;;;5053377;28;20033;-68
2022/12/21 01:43:58;;;;;;;43.72;16.00;;;9.00;99.90;;;;;;5052214;28;20049;-68
2022/12/21 01:46:26;;;;;;;47.55;15.57;;;8.90;99.90;;;;;;5053979;28;20045;-68
2022/12/21 01:49:10;;;;;;;36.58;13.43;;;8.90;99.90;;;;;;5052499;28;20556;-68
2022/12/21 01:51:37;;;;;;;33.88;11.80;;;8.90;99.90;;;;;;5054050;28;20033;-68
2022/12/21 01:54:16;;;;;;;35.58;12.38;;;8.90;99.90;;;;;;5053335;28;20087;-68
2022/12/21 01:56:44;;;;;;;36.58;12.77;;;8.90;99.90;;;;;;5054253;28;20090;-68
2022/12/21 01:59:30;;;;;;;34.45;12.57;;;8.90;99.90;;;;;;5053503;28;20044;-68
2022/12/21 02:02:00;;;;;;;32.63;12.45;;;8.90;99.90;;;;;;5053866;28;20041;-68
2022/12/21 02:04:26;;;;;;;32.97;13.57;;;8.80;99.90;;;;;;5053005;28;20056;-68
2022/12/21 02:06:56;;;;;;;31.27;11.07;;;8.90;99.90;;;;;;5054184;28;20037;-68
2022/12/21 02:09:28;;;;;;;30.73;12.85;;;8.90;99.90;;;;;;5052528;28;20126;-68
2022/12/21 02:11:55;;;;;;;36.08;12.93;;;8.80;99.90;;;;;;5053883;28;20489;-68
2022/12/21 02:14:21;;;;;;;33.80;12.15;;;8.80;99.90;;;;;;5051586;28;20447;-68
2022/12/21 02:17:18;;;;;;;33.30;12.63;;;8.80;99.90;;;;;;5052161;28;20132;-68
2022/12/21 02:19:58;;;;;;;33.33;12.13;;;8.80;99.90;;;;;;5051206;28;20044;-68
2022/12/21 02:22:51;;;;;;;29.52;12.18;;;8.80;99.90;;;;;;5059758;28;20037;-68
2022/12/21 02:25:40;;;;;;;35.95;12.68;;;8.80;99.90;;;;;;5065141;28;20523;-68
2022/12/21 02:28:38;;;;;;;36.72;12.50;;;8.80;99.90;;;;;;5060556;28;20041;-68
2022/12/21 02:31:24;;;;;;;33.03;12.05;;;8.80;99.90;;;;;;5071688;28;20044;-68
2022/12/21 02:33:56;;;;;;;31.95;11.15;;;8.80;99.90;;;;;;5069484;28;20409;-68
2022/12/21 02:36:41;;;;;;;;;;;8.80;99.90;;;;;;5072392;28;20496;-68
2022/12/21 02:39:30;;;;;;;29.92;9.85;;;8.70;99.90;;;;;;5071756;28;19917;-68
2022/12/21 02:44:12;;;;;;;35.58;11.48;;;8.70;99.90;;;;;;5071582;28;20032;-68
2022/12/21 02:45:00;;;;;;;35.72;12.05;;;8.70;99.90;;;;;;5071977;28;20055;-68
2022/12/21 02:47:44;;;;;;;27.38;11.40;;;8.70;99.90;;;;;;5071429;28;20041;-68
2022/12/21 02:50:13;;;;;;;31.00;11.27;;;8.60;99.90;;;;;;5054840;28;20089;-68
2022/12/21 02:52:47;;;;;;;28.92;10.57;;;8.70;99.90;;;;;;5071361;28;20052;-68
2022/12/21 02:55:13;;;;;;;29.65;11.68;;;8.60;99.90;;;;;;5070727;28;20119;-68
2022/12/21 02:57:42;;;;;;;35.85;12.23;;;8.60;99.90;;;;;;5072600;28;20760;-68
2022/12/21 03:00:16;;;;;;;32.13;11.73;;;8.50;99.90;;;;;;5071294;28;20037;-68
2022/12/21 03:05:59;;;;;;;;;;;8.60;99.90;;;;;;5071862;28;20052;-68
2022/12/21 03:08:59;;;;;;;39.13;14.35;;;8.50;99.90;;;;;;5071590;28;19969;-68
2022/12/21 03:11:33;;;;;;;49.35;15.23;;;8.50;99.90;;;;;;5072188;28;20055;-68
2022/12/21 03:14:09;;;;;;;40.53;13.23;;;8.50;99.90;;;;;;5071832;28;20103;-68
2022/12/21 03:16:50;;;;;;;42.67;14.40;;;8.50;99.90;;;;;;5072022;28;20519;-68
2022/12/21 03:19:24;;;;;;;39.55;13.80;;;8.40;99.90;;;;;;5071722;28;20040;-68
2022/12/21 03:21:59;;;;;;;40.08;13.88;;;8.50;99.90;;;;;;5072279;28;20045;-68
2022/12/21 03:24:35;;;;;;;39.25;13.75;;;8.50;99.90;;;;;;5071262;28;20102;-68
2022/12/21 03:27:13;;;;;;;37.03;12.63;;;8.50;99.90;;;;;;5072099;28;20041;-68
2022/12/21 03:29:44;;;;;;;37.85;13.45;;;8.50;99.90;;;;;;5071958;28;20036;-68
2022/12/21 03:32:14;;;;;;;37.47;13.80;;;8.40;99.90;;;;;;5070498;28;20493;-68
2022/12/21 03:34:44;;;;;;;49.72;13.50;;;8.50;99.90;;;;;;5069458;28;20044;-68
2022/12/21 03:37:14;;;;;;;36.35;13.27;;;8.50;99.90;;;;;;5071464;28;20735;-68
2022/12/21 03:39:44;;;;;;;41.60;14.60;;;8.50;99.90;;;;;;5071492;28;20050;-68
2022/12/21 03:42:31;;;;;;;39.05;14.18;;;8.50;99.90;;;;;;5071608;28;20719;-68
2022/12/21 03:45:04;;;;;;;47.90;15.73;;;8.50;99.90;;;;;;5070824;28;20044;-68
2022/12/21 03:47:39;;;;;;;41.47;15.45;;;8.50;99.90;;;;;;5071830;28;20072;-68
2022/12/21 03:50:11;;;;;;;42.53;13.38;;;8.50;99.90;;;;;;5070189;28;20045;-68
2022/12/21 03:52:49;;;;;;;48.40;14.98;;;8.40;99.90;;;;;;5053761;28;20455;-68
2022/12/21 03:55:28;;;;;;;45.38;15.02;;;8.40;99.90;;;;;;5069622;28;20443;-68
2022/12/21 03:57:55;;;;;;;52.58;13.50;;;8.40;99.90;;;;;;5071867;28;20710;-68
2022/12/21 04:00:20;;;;;;;44.50;14.93;;;8.40;99.90;;;;;;5071214;28;20036;-68
2022/12/21 04:03:01;;;;;;;46.00;13.70;;;8.40;99.90;;;;;;5070097;28;20044;-68
2022/12/21 04:05:33;;;;;;;47.05;14.77;;;8.40;99.90;;;;;;5070445;28;20055;-68
2022/12/21 04:08:00;;;;;;;52.15;15.20;;;8.40;99.90;;;;;;5069361;28;20036;-68
2022/12/21 04:10:26;;;;;;;46.78;15.02;;;8.40;99.90;;;;;;5069562;28;20044;-68
2022/12/21 04:12:52;;;;;;;47.63;14.38;;;8.40;99.90;;;;;;5071537;28;20089;-68
2022/12/21 04:15:21;;;;;;;43.50;15.40;;;8.40;99.90;;;;;;5069043;28;20497;-68
2022/12/21 04:17:49;;;;;;;45.78;14.20;;;8.40;99.90;;;;;;5071092;28;20112;-68
2022/12/21 04:20:23;;;;;;;51.65;16.20;;;8.40;99.90;;;;;;5070155;28;20040;-68
2022/12/21 04:28:27;;;;;;;56.45;15.93;;;8.30;99.90;;;;;;5071233;28;20044;-68
2022/12/21 04:30:54;;;;;;;46.75;14.77;;;8.30;99.90;;;;;;5069739;28;20044;-68
2022/12/21 04:33:21;;;;;;;52.97;15.63;;;8.30;99.90;;;;;;5069291;28;20040;-68
2022/12/21 04:38:36;;;;;;;47.70;15.48;;;8.30;99.90;;;;;;5070503;28;20044;-68
2022/12/21 04:41:02;;;;;;;49.47;16.08;;;8.30;99.90;;;;;;5069546;28;20068;-68
2022/12/21 04:43:27;;;;;;;49.53;14.68;;;8.30;99.90;;;;;;5069526;28;20044;-68
2022/12/21 04:46:11;;;;;;;64.20;17.50;;;8.30;99.90;;;;;;5070365;28;20097;-68
2022/12/21 04:48:37;;;;;;;54.90;15.95;;;8.30;99.90;;;;;;5070677;28;20028;-68
2022/12/21 04:51:08;;;;;;;58.97;17.85;;;8.30;99.90;;;;;;5070810;28;20048;-68
2022/12/21 04:53:34;;;;;;;59.38;18.83;;;8.30;99.90;;;;;;5070347;28;20037;-68
2022/12/21 04:56:00;;;;;;;66.38;18.63;;;8.40;99.90;;;;;;5072794;28;20072;-68
2022/12/21 04:58:26;;;;;;;51.88;17.92;;;8.40;99.90;;;;;;5056993;28;20425;-68
2022/12/21 05:00:51;;;;;;;61.20;18.05;;;8.40;99.90;;;;;;5073376;28;20050;-68
2022/12/21 05:03:19;;;;;;;54.17;17.90;;;8.40;99.90;;;;;;5074965;28;20558;-68
2022/12/21 05:05:45;;;;;;;54.97;19.00;;;8.30;99.90;;;;;;5072459;28;20485;-68
2022/12/21 05:08:10;;;;;;;61.42;18.50;;;8.30;99.90;;;;;;5073265;28;20078;-68
2022/12/21 05:10:36;;;;;;;53.85;17.65;;;8.30;99.90;;;;;;5073240;28;20040;-68
2022/12/21 05:13:01;;;;;;;50.95;15.88;;;8.30;99.90;;;;;;5056607;28;20076;-69
2022/12/21 05:15:27;;;;;;;65.53;17.75;;;8.40;99.90;;;;;;5072519;28;20082;-68
2022/12/21 05:17:53;;;;;;;54.45;18.58;;;8.30;99.90;;;;;;5074382;28;20079;-68
2022/12/21 05:20:18;;;;;;;54.85;17.40;;;8.40;99.90;;;;;;5074329;28;20389;-68
2022/12/21 05:22:46;;;;;;;60.03;18.90;;;8.30;99.90;;;;;;5074465;28;20040;-68
2022/12/21 05:25:11;;;;;;;51.85;18.90;;;8.30;99.90;;;;;;5073742;28;20037;-68
2022/12/21 05:27:37;;;;;;;60.13;16.83;;;8.30;99.90;;;;;;5072796;28;20523;-68
2022/12/21 05:30:04;;;;;;;61.22;18.05;;;8.40;99.90;;;;;;5072997;28;20071;-68
2022/12/21 05:32:29;;;;;;;52.67;16.92;;;8.40;99.90;;;;;;5072493;28;20491;-68
2022/12/21 05:34:55;;;;;;;50.40;16.38;;;8.40;99.90;;;;;;5073584;28;20037;-68
2022/12/21 05:37:20;;;;;;;56.85;17.73;;;8.40;99.90;;;;;;5074207;28;20109;-68
2022/12/21 05:39:46;;;;;;;50.35;17.77;;;8.30;99.90;;;;;;5073246;28;20044;-68
2022/12/21 05:42:12;;;;;;;47.80;17.85;;;8.40;99.90;;;;;;5073738;28;20542;-68
2022/12/21 05:44:37;;;;;;;46.35;16.48;;;8.40;99.90;;;;;;5072280;28;21165;-68
2022/12/21 05:47:03;;;;;;;44.47;15.75;;;8.40;99.90;;;;;;5074215;28;20033;-68
2022/12/21 05:49:28;;;;;;;51.80;17.48;;;8.40;99.90;;;;;;5073544;28;20044;-68
2022/12/21 05:51:54;;;;;;;50.38;16.67;;;8.40;99.90;;;;;;5073996;28;20076;-68
2022/12/21 05:54:19;;;;;;;49.60;16.50;;;8.40;99.90;;;;;;5072860;28;20048;-68
2022/12/21 05:56:45;;;;;;;42.45;16.35;;;8.40;99.90;;;;;;5073940;28;20040;-68
2022/12/21 05:59:11;;;;;;;47.58;15.55;;;8.40;99.90;;;;;;5071774;28;20043;-68
2022/12/21 06:01:36;;;;;;;42.72;16.45;;;8.40;99.90;;;;;;5073372;28;20529;-68
2022/12/21 06:04:02;;;;;;;42.03;14.88;;;8.40;99.90;;;;;;5072889;28;20052;-68
2022/12/21 06:06:28;;;;;;;42.95;16.42;;;8.30;99.90;;;;;;5071850;28;20400;-68
2022/12/21 06:08:54;;;;;;;42.85;15.35;;;8.40;99.90;;;;;;5050327;28;20067;-68
2022/12/21 06:11:23;;;;;;;48.28;16.85;;;8.30;99.90;;;;;;5061144;28;20036;-68
2022/12/21 06:13:50;;;;;;;42.33;15.25;;;8.30;99.90;;;;;;5055204;28;20041;-68
2022/12/21 06:16:18;;;;;;;48.33;15.93;;;8.30;99.90;;;;;;5073592;28;20419;-68
2022/12/21 06:18:44;;;;;;;47.63;16.17;;;8.30;99.90;;;;;;5073154;28;20063;-68
2022/12/21 06:21:11;;;;;;;46.65;16.05;;;8.30;99.90;;;;;;5072352;28;20040;-68
2022/12/21 06:23:39;;;;;;;45.85;16.20;;;8.30;99.90;;;;;;5070886;28;20037;-68
2022/12/21 06:26:06;;;;;;;41.53;17.08;;;8.30;99.90;;;;;;5071133;28;20037;-68
2022/12/21 06:28:32;;;;;;;51.30;17.73;;;8.30;99.90;;;;;;5073395;28;20423;-68
2022/12/21 06:31:06;;;;;;;46.58;16.67;;;8.30;99.90;;;;;;5073341;28;20046;-68
2022/12/21 06:33:32;;;;;;;52.05;18.13;;;8.30;99.90;;;;;;5053714;28;20119;-68
2022/12/21 06:35:58;;;;;;;50.35;17.20;;;8.30;99.90;;;;;;5072613;28;20103;-68
2022/12/21 06:38:25;;;;;;;47.40;17.33;;;8.30;99.90;;;;;;5072803;28;20048;-68
2022/12/21 06:40:59;;;;;;;56.30;17.85;;;8.30;99.90;;;;;;5070894;28;20127;-68
2022/12/21 06:43:26;;;;;;;44.95;17.45;;;8.20;99.90;;;;;;5072100;28;20477;-68
2022/12/21 06:45:56;;;;;;;58.03;18.60;;;8.30;99.90;;;;;;5072000;28;20048;-68
2022/12/21 06:48:23;;;;;;;53.92;18.85;;;8.30;99.90;;;;;;5072708;28;20440;-68
2022/12/21 06:50:57;;;;;;;57.63;19.02;;;8.30;99.90;;;;;;5071468;28;20036;-68
2022/12/21 06:53:25;;;;;;;48.90;16.98;;;8.30;99.90;;;;;;5072675;28;20048;-69
2022/12/21 06:56:02;;;;;;;54.75;18.77;;;8.20;99.90;;;;;;5070980;28;20048;-68
2022/12/21 06:58:29;;;;;;;52.15;18.33;;;8.30;99.90;;;;;;5072506;28;20064;-68
2022/12/21 07:00:54;;;;;;;49.55;17.80;;;8.30;99.90;;;;;;5054437;28;20049;-67
2022/12/21 07:03:23;;;;;;;47.88;18.23;;;8.30;99.90;;;;;;5072247;28;20459;-68
2022/12/21 07:05:49;;;;;;;49.53;18.40;;;8.30;99.90;;;;;;5069997;28;20128;-68
2022/12/21 07:08:16;;;;;;;54.22;18.02;;;8.30;99.90;;;;;;5070347;28;20063;-68
2022/12/21 07:10:41;;;;;;;54.05;17.27;;;8.30;99.90;;;;;;5070869;28;20456;-68
2022/12/21 07:13:07;;;;;;;45.17;16.63;;;8.20;99.90;;;;;;5071045;28;20127;-68
2022/12/21 07:15:33;;;;;;;50.97;17.25;;;8.30;99.90;;;;;;5071507;28;20040;-68
2022/12/21 07:17:59;;;;;;;53.30;17.42;;;8.30;99.90;;;;;;5071270;28;20174;-68
2022/12/21 07:20:24;;;;;;;45.35;18.10;;;8.30;99.90;;;;;;5052118;28;20033;-68
2022/12/21 07:22:50;;;;;;;56.22;18.02;;;8.30;99.90;;;;;;5059760;28;20102;-68
2022/12/21 07:25:16;;;;;;;54.13;17.48;;;8.20;99.90;;;;;;5066944;28;20040;-68
2022/12/21 07:27:41;;;;;;;46.08;17.83;;;8.30;99.90;;;;;;5072044;28;20075;-68
2022/12/21 07:30:08;;;;;;;50.92;19.08;;;8.20;99.90;;;;;;5072039;28;20064;-68
2022/12/21 07:32:33;;;;;;;51.20;17.38;;;8.20;99.90;;;;;;5069528;28;20509;-68
2022/12/21 07:34:59;;;;;;;56.97;18.60;;;8.20;99.90;;;;;;5070788;28;20075;-68
2022/12/21 07:37:24;;;;;;;48.88;17.70;;;8.20;99.90;;;;;;5071580;28;20040;-68
2022/12/21 07:39:50;;;;;;;54.47;18.63;;;8.30;99.90;;;;;;5070678;28;20062;-69
2022/12/21 07:42:15;;;;;;;54.38;18.90;;;8.20;99.90;;;;;;5070208;28;20533;-68
2022/12/21 07:44:41;;;;;;;53.22;17.88;;;8.20;99.90;;;;;;5070941;28;20393;-68
2022/12/21 07:47:07;;;;;;;51.50;19.73;;;8.20;99.90;;;;;;5071695;28;20475;-68
2022/12/21 07:49:34;;;;;;;55.67;20.25;;;8.20;99.90;;;;;;5070701;28;20036;-68
2022/12/21 07:52:00;;;;;;;56.13;19.67;;;8.20;99.90;;;;;;5071398;28;20041;-68
2022/12/21 07:54:25;;;;;;;52.72;18.83;;;8.20;99.90;;;;;;5069519;28;20709;-68
2022/12/21 07:56:51;;;;;;;58.38;19.05;;;8.20;99.90;;;;;;5064358;28;20325;-68
2022/12/21 07:59:17;;;;;;;56.00;20.27;;;8.20;99.90;;;;;;5059780;28;20044;-68
2022/12/21 08:01:42;;;;;;;64.88;22.17;;;8.20;99.90;;;;;;5059947;28;20386;-69
2022/12/21 08:04:08;;;;;;;62.42;19.88;;;8.20;99.90;;;;;;5052776;28;20048;-68
2022/12/21 08:06:35;;;;;;;63.22;21.83;;;8.20;99.90;;;;;;5043698;28;20044;-68
2022/12/21 08:09:01;;;;;;;63.50;21.42;;;8.20;99.90;;;;;;5049188;28;20078;-68
2022/12/21 08:11:28;;;;;;;61.10;20.40;;;8.20;99.90;;;;;;5057252;28;20041;-68
2022/12/21 08:13:54;;;;;;;49.13;18.02;;;8.20;99.90;;;;;;5060090;28;20400;-68
2022/12/21 08:16:20;;;;;;;58.10;21.23;;;8.10;99.90;;;;;;5055658;28;20053;-68
2022/12/21 08:18:46;;;;;;;64.82;20.33;;;8.10;99.90;;;;;;5060017;28;20040;-68
2022/12/21 08:21:12;;;;;;;51.53;21.40;;;8.20;99.90;;;;;;5062297;28;20698;-68
2022/12/21 08:23:39;;;;;;;57.28;19.45;;;8.20;99.90;;;;;;5068266;28;20086;-68
2022/12/21 08:26:08;;;;;;;59.13;19.90;;;8.10;99.90;;;;;;5052495;28;20052;-68
2022/12/21 08:28:34;;;;;;;58.17;19.48;;;8.10;99.90;;;;;;5070873;28;20459;-71
2022/12/21 08:31:09;;;;;;;58.83;19.88;;;8.20;99.90;;;;;;5069667;28;20047;-72
2022/12/21 08:33:35;;;;;;;52.25;19.73;;;8.20;99.90;;;;;;5069639;28;20044;-72
2022/12/21 08:36:00;;;;;;;63.78;20.08;;;8.20;99.90;;;;;;5068831;28;20100;-68
2022/12/21 08:38:26;;;;;;;54.83;20.50;;;8.20;99.90;;;;;;5071096;28;20119;-67
2022/12/21 08:40:52;;;;;;;61.58;20.60;;;8.20;99.90;;;;;;5052846;28;20040;-67
2022/12/21 08:43:21;;;;;;;51.55;20.60;;;8.20;99.90;;;;;;5069592;28;20036;-68
2022/12/21 08:45:47;;;;;;;64.90;21.55;;;8.20;99.90;;;;;;5070108;28;20044;-67
2022/12/21 08:48:12;;;;;;;50.42;18.98;;;8.10;99.90;;;;;;5069279;28;20527;-68
2022/12/21 08:50:38;;;;;;;51.58;18.60;;;8.10;99.90;;;;;;5070649;28;20115;-68
2022/12/21 08:53:04;;;;;;;61.97;18.90;;;8.10;99.90;;;;;;5069271;28;20056;-67
2022/12/21 08:55:30;;;;;;;53.83;18.55;;;8.00;99.90;;;;;;5070115;28;20036;-68
2022/12/21 08:57:56;;;;;;;52.80;18.38;;;8.00;99.90;;;;;;5068562;28;20045;-67
2022/12/21 09:00:22;;;;;;;66.75;21.23;;;8.10;99.90;;;;;;5052546;28;20404;-68
2022/12/21 09:02:48;;;;;;;54.25;18.42;;;8.00;99.90;;;;;;5069166;28;20040;-68
2022/12/21 09:05:13;;;;;;;59.28;18.67;;;8.00;99.90;;;;;;5068565;28;20409;-68
2022/12/21 09:07:39;;;;;;;50.97;19.00;;;8.00;99.90;;;;;;5069303;28;20123;-71
2022/12/21 09:10:05;;;;;;;44.67;17.48;;;8.10;99.90;;;;;;5068577;28;20122;-68
2022/12/21 09:12:30;;;;;;;57.67;20.05;;;8.00;99.90;;;;;;5068777;28;20032;-68
2022/12/21 09:14:56;;;;;;;56.70;18.83;;;8.00;99.90;;;;;;5067563;28;20468;-68
2022/12/21 09:17:22;;;;;;;56.95;19.33;;;8.00;99.90;;;;;;5070326;28;20080;-69
2022/12/21 09:19:47;;;;;;;61.63;18.25;;;8.00;99.90;;;;;;5068304;28;20048;-67
2022/12/21 09:22:13;;;;;;;50.30;17.67;;;8.00;99.90;;;;;;5069921;28;20091;-68
2022/12/21 09:24:38;;;;;;;55.80;18.92;;;8.00;99.90;;;;;;5050133;28;20398;-68
2022/12/21 09:27:04;;;;;;;56.35;18.02;;;8.10;99.90;;;;;;5069270;28;20044;-68
2022/12/21 09:29:30;;;;;;;48.78;18.30;;;8.10;99.90;;;;;;5069178;28;20044;-68
2022/12/21 09:31:55;;;;;;;51.13;17.63;;;8.10;99.90;;;;;;5070337;28;20489;-68
2022/12/21 09:34:21;;;;;;;50.80;16.73;;;8.00;99.90;;;;;;5068390;28;20045;-69
2022/12/21 09:36:49;;;;;;;49.78;17.20;;;8.00;99.90;;;;;;5069344;28;20044;-71
2022/12/21 09:39:15;;;;;;;46.90;16.13;;;8.10;99.90;;;;;;5068644;28;20048;-68
2022/12/21 09:42:04;;;;;;;49.42;17.42;;;8.10;99.90;;;;;;5070562;28;20520;-68
2022/12/21 09:44:45;;;;;;;50.10;17.27;;;8.10;99.90;;;;;;5057141;28;20480;-68
2022/12/21 09:47:19;;;;;;;49.17;16.75;;;8.10;99.90;;;;;;5037243;28;20489;-68
2022/12/21 09:49:56;;;;;;;47.85;18.00;;;8.10;99.90;;;;;;5055027;28;20043;-68
2022/12/21 09:52:29;;;;;;;53.30;17.48;;;8.20;99.90;;;;;;5028262;28;20032;-68
2022/12/21 09:55:00;;;;;;;51.65;18.17;;;8.20;99.90;;;;;;5036969;28;20052;-68
2022/12/21 09:57:35;;;;;;;58.80;18.08;;;8.20;99.90;;;;;;5055768;28;20044;-68
2022/12/21 10:00:13;;;;;;;50.25;17.65;;;8.20;99.90;;;;;;5066334;28;20072;-68
2022/12/21 10:02:54;;;;;;;51.08;18.67;;;8.20;99.90;;;;;;5056644;28;20095;-68
2022/12/21 10:05:58;;;;;;;55.95;18.42;;;8.20;99.90;;;;;;5063267;28;20045;-68
2022/12/21 10:08:50;;;;;;;47.15;17.35;;;8.20;99.90;;;;;;5010499;28;20056;-68
2022/12/21 10:11:24;;;;;;;52.38;18.45;;;8.20;99.90;;;;;;5059805;28;20037;-66
2022/12/21 10:14:19;;;;;;;61.20;19.58;;;8.20;99.90;;;;;;5055040;28;20048;-68
2022/12/21 10:16:58;;;;;;;52.83;18.15;;;8.20;99.90;;;;;;5071550;28;20060;-71
2022/12/21 10:19:53;;;;;;;51.80;19.38;;;8.20;99.90;;;;;;5072581;28;20033;-71
2022/12/21 10:22:42;;;;;;;48.47;16.50;;;8.20;99.90;;;;;;5059251;28;20517;-71
2022/12/21 10:25:17;;;;;;;49.90;17.08;;;8.20;99.90;;;;;;5057757;28;20041;-70
2022/12/21 10:27:56;;;;;;;48.70;17.55;;;8.20;99.90;;;;;;5053706;28;20633;-71
2022/12/21 10:30:22;;;;;;;45.08;17.17;;;8.20;99.90;;;;;;5059582;28;20431;-71
2022/12/21 10:32:50;;;;;;;49.13;17.48;;;8.20;99.90;;;;;;5060470;28;20120;-72
2022/12/21 10:35:36;;;;;;;45.03;16.13;;;8.20;99.90;;;;;;5054984;28;20464;-72
2022/12/21 10:38:13;;;;;;;46.45;16.65;;;8.20;99.90;;;;;;5050405;28;20084;-71
2022/12/21 10:40:41;;;;;;;49.28;17.75;;;8.20;99.90;;;;;;5050357;28;20045;-71
2022/12/21 10:43:11;;;;;;;44.05;15.77;;;8.30;99.90;;;;;;5051120;28;20124;-68
2022/12/21 10:45:36;;;;;;;46.53;16.40;;;8.30;99.90;;;;;;5050380;28;20049;-68
2022/12/21 10:48:02;;;;;;;46.33;16.30;;;8.40;99.90;;;;;;5051031;28;20051;-68
2022/12/21 10:50:32;;;;;;;48.42;17.02;;;8.40;99.90;;;;;;5048369;28;20117;-68
2022/12/21 10:52:59;;;;;;;53.42;18.13;;;8.40;99.90;;;;;;5048902;28;20426;-68
2022/12/21 10:55:36;;;;;;;53.50;18.08;;;8.30;99.90;;;;;;5050570;28;20457;-68
2022/12/21 10:58:21;;;;;;;52.40;16.95;;;8.40;99.90;;;;;;5050064;28;20413;-69
2022/12/21 11:00:56;;;;;;;59.65;19.13;;;8.40;99.90;;;;;;5050107;28;20066;-69
2022/12/21 11:03:34;;;;;;;57.58;18.45;;;8.40;99.90;;;;;;5050434;28;20047;-69
2022/12/21 11:06:18;;;;;;;52.33;19.33;;;8.40;99.90;;;;;;5033354;28;20049;-68
2022/12/21 11:08:46;;;;;;;54.65;17.55;;;8.40;99.90;;;;;;5051312;28;20485;-68
2022/12/21 11:11:34;;;;;;;58.65;19.23;;;8.50;99.90;;;;;;5050944;28;20106;-69
2022/12/21 11:14:14;;;;;;;56.63;18.13;;;8.50;99.90;;;;;;5029378;28;20124;-68
2022/12/21 11:16:40;;;;;;;48.53;18.02;;;8.50;99.90;;;;;;5047528;28;20128;-68
2022/12/21 11:19:11;;;;;;;56.90;18.42;;;8.50;99.90;;;;;;5062986;28;20619;-69
2022/12/21 11:21:57;;;;;;;52.70;18.38;;;8.50;99.90;;;;;;5061388;28;20055;-68
2022/12/21 11:24:30;;;;;;;54.45;17.15;;;8.50;99.90;;;;;;5057874;28;20183;-68
2022/12/21 11:27:00;;;;;;;51.97;18.02;;;8.50;99.90;;;;;;5072162;28;20041;-68
2022/12/21 11:29:41;;;;;;;50.47;18.65;;;8.50;99.90;;;;;;5070912;28;20572;-67
2022/12/21 11:32:11;;;;;;;54.08;18.60;;;8.40;99.90;;;;;;5071081;28;20036;-68
2022/12/21 11:34:50;;;;;;;52.58;19.58;;;8.50;99.90;;;;;;5071086;28;20036;-68
2022/12/21 11:37:41;;;;;;;55.40;20.25;;;8.50;99.90;;;;;;5070234;28;20769;-68
2022/12/21 11:40:27;;;;;;;65.75;20.17;;;8.50;99.90;;;;;;5071287;28;20066;-68
2022/12/21 11:42:53;;;;;;;55.08;20.75;;;8.50;99.90;;;;;;5055312;28;20048;-68
2022/12/21 11:45:30;;;;;;;59.05;20.52;;;8.50;99.90;;;;;;5062251;28;20043;-68
2022/12/21 11:48:23;;;;;;;65.35;22.00;;;8.60;99.90;;;;;;5069657;28;20051;-70
2022/12/21 11:50:49;;;;;;;;;;;8.70;99.90;;;;;;5071473;28;20048;-72
2022/12/21 11:53:46;;;;;;;57.17;19.48;;;8.70;99.90;;;;;;5070081;28;19920;-69
2022/12/21 11:56:34;;;;;;;59.35;20.33;;;8.80;99.90;;;;;;5069593;28;20115;-67
2022/12/21 11:59:27;;;;;;;59.22;19.27;;;8.80;99.90;;;;;;5067437;28;20051;-68
2022/12/21 12:02:27;;;;;;;66.57;21.92;;;8.80;99.90;;;;;;5057947;28;20047;-68
2022/12/21 12:05:14;;;;;;;61.22;19.60;;;8.90;99.90;;;;;;5047049;28;20059;-67
2022/12/21 12:07:42;;;;;;;60.88;20.30;;;8.90;99.90;;;;;;5048434;28;20032;-67
2022/12/21 12:10:24;;;;;;;58.20;19.90;;;9.00;99.90;;;;;;5057212;28;20037;-68
2022/12/21 12:13:16;;;;;;;57.67;22.10;;;9.00;99.90;;;;;;5059538;28;20037;-67
2022/12/21 12:15:45;;;;;;;67.38;22.25;;;8.90;99.90;;;;;;5037494;28;20420;-68
2022/12/21 12:18:33;;;;;;;61.83;21.20;;;9.00;99.90;;;;;;5061176;28;20037;-67
2022/12/21 12:21:21;;;;;;;53.60;19.92;;;9.00;99.90;;;;;;5058439;28;20085;-69
2022/12/21 12:24:24;;;;;;;59.80;20.95;;;9.00;99.90;;;;;;5057940;28;20043;-69
2022/12/21 12:27:07;;;;;;;57.45;20.23;;;9.00;99.90;;;;;;5054997;28;20532;-69
2022/12/21 12:29:47;;;;;;;57.58;17.77;;;9.00;99.90;;;;;;5059671;28;20508;-69
2022/12/21 12:32:27;;;;;;;60.08;19.63;;;9.00;99.90;;;;;;5058468;28;20048;-69
2022/12/21 12:35:22;;;;;;;55.35;19.08;;;9.00;99.90;;;;;;5057861;28;20107;-68
2022/12/21 12:38:31;;;;;;;58.92;19.73;;;9.00;99.90;;;;;;5062368;28;20041;-68
2022/12/21 12:41:27;;;;;;;50.88;18.92;;;8.90;99.90;;;;;;5061362;28;20048;-68
2022/12/21 12:44:00;;;;;;;50.67;18.42;;;9.00;99.90;;;;;;5053615;28;20067;-69
2022/12/21 12:47:02;;;;;;;54.15;20.95;;;9.00;99.90;;;;;;5061257;28;20389;-68
2022/12/21 12:49:49;;;;;;;50.30;19.77;;;9.00;99.90;;;;;;5059328;28;20072;-69
2022/12/21 12:52:42;;;;;;;51.88;19.58;;;9.00;99.90;;;;;;5057744;28;21427;-69
2022/12/21 12:55:28;;;;;;;49.42;18.45;;;9.00;99.90;;;;;;5057334;28;20033;-68
2022/12/21 12:58:26;;;;;;;53.53;20.20;;;9.00;99.90;;;;;;5061270;28;20109;-68
2022/12/21 13:00:56;;;;;;;46.70;19.10;;;9.00;99.90;;;;;;5058642;28;20065;-68
2022/12/21 13:04:08;;;;;;;56.45;19.40;;;8.90;99.90;;;;;;5039844;28;20029;-69
2022/12/21 13:06:52;;;;;;;45.05;18.40;;;9.00;99.90;;;;;;5063530;28;20044;-69
2022/12/21 13:09:29;;;;;;;45.72;18.33;;;8.90;99.90;;;;;;5068739;28;20055;-69
2022/12/21 13:11:59;;;;;;;44.65;17.88;;;9.00;99.90;;;;;;5069344;28;20040;-69
2022/12/21 13:14:41;;;;;;;49.10;19.25;;;9.00;99.90;;;;;;5068330;28;20456;-69